Main page
METAR-TAF:

METAR-TAF

Airports :

Santiago de Compostela Airport

Santiago de Compostela, Spain

latitude: 42-54N, longitude: 008-26W, elevation: 370 m

Current weather observation

The report was made 42 minutes ago, at 03:30 UTC
Wind 10 kt from the North/Northeast, varying between North and East/Northeast
Temperature 13°C
Humidity 94%
Pressure 1022 hPa
Visibility 10 km or more
Few clouds at a height of 2500 ft

METAR: LEST 200330Z 03010KT 360V060 9999 FEW025 13/12 Q1022 NOSIG

Time: 06:12 (04:12 UTC)

Forecast

The report was made 5 hours and 12 minutes ago, at 23:00 UTC
Forecast valid from 20 at 00 UTC to 20 at 24 UTC
Wind 9 kt from the North/Northeast
Visibility 10 km or more
Few clouds at a height of 3000 ft
Probability 40% :
Temporary
from 20 at 10 UTC to 20 at 18 UTC
Wind 15 kt from the North/Northeast with gusts up to 25 kt

TAF: LEST 192300Z 2000/2024 02009KT 9999 FEW030 TX23/2015Z TN11/2006Z PROB40 TEMPO 2010/2018 03015G25KT

Weather observations and forecasts of more than 4000 airports (METAR and TAF reports).

The available stations are represented by yellow and red dots on the map.

Hover mouse over dot to see the name of the station.

Then click to see weather observations and forecasts.

To change the map : click on the green buttons with a black cross to zoom in, on the green button with a dash to zoom out, or on the green arrows for adjacent maps.


METAR-TAF: